createdAt,value
2018-04-10T00:00:26.611Z,77.63
2018-04-10T00:01:26.602Z,78.20
2018-04-10T00:02:26.599Z,78.01
2018-04-10T00:03:26.586Z,78.01
2018-04-10T00:04:26.578Z,78.20
2018-04-10T00:05:26.571Z,77.72
2018-04-10T00:06:26.569Z,78.11
2018-04-10T00:07:26.555Z,78.01
2018-04-10T00:08:26.555Z,78.20
2018-04-10T00:09:26.544Z,78.68
2018-04-10T00:10:26.534Z,78.49
2018-04-10T00:11:26.521Z,78.68
2018-04-10T00:12:26.513Z,79.25
2018-04-10T00:13:26.506Z,79.16
2018-04-10T00:14:26.503Z,79.06
2018-04-10T00:15:26.490Z,79.25
2018-04-10T00:16:26.481Z,79.44
2018-04-10T00:17:26.480Z,79.44
2018-04-10T00:18:26.469Z,79.54
2018-04-10T00:19:26.462Z,79.88
2018-04-10T00:20:26.455Z,79.79
2018-04-10T00:21:26.446Z,80.21
2018-04-10T00:22:26.436Z,79.88
2018-04-10T00:23:26.422Z,79.54
2018-04-10T00:24:26.415Z,79.73
2018-04-10T00:25:26.409Z,79.83
2018-04-10T00:26:26.405Z,79.35
2018-04-10T00:27:26.391Z,79.64
2018-04-10T00:28:26.383Z,79.88
2018-04-10T00:29:26.374Z,80.17
2018-04-10T00:30:26.368Z,80.36
2018-04-10T00:31:26.360Z,80.07
2018-04-10T00:32:26.357Z,80.07
2018-04-10T00:33:26.347Z,80.17
2018-04-10T00:34:26.335Z,80.27
2018-04-10T00:35:26.326Z,80.27
2018-04-10T00:36:26.317Z,80.65
2018-04-10T00:37:26.315Z,80.65
2018-04-10T00:38:26.302Z,81.32
2018-04-10T00:39:26.295Z,81.13
2018-04-10T00:40:26.284Z,81.51
2018-04-10T00:41:26.276Z,81.32
2018-04-10T00:42:26.271Z,81.22
2018-04-10T00:43:26.258Z,81.13
2018-04-10T00:44:26.250Z,81.13
2018-04-10T00:45:26.249Z,80.93
2018-04-10T00:46:26.232Z,81.70
2018-04-10T00:47:26.225Z,81.32
2018-04-10T00:48:26.217Z,81.51
2018-04-10T00:49:26.212Z,81.70
2018-04-10T00:50:26.206Z,81.70
2018-04-10T00:51:26.194Z,81.60
2018-04-10T00:52:26.189Z,81.89
2018-04-10T00:53:26.176Z,82.28
2018-04-10T00:54:26.166Z,82.65
2018-04-10T00:55:26.164Z,82.65
2018-04-10T00:56:26.153Z,82.28
2018-04-10T00:57:26.142Z,82.65
2018-04-10T00:58:26.135Z,82.71
2018-04-10T00:59:26.132Z,82.75
2018-04-10T01:00:26.117Z,82.56
2018-04-10T01:01:26.109Z,82.61
2018-04-10T01:02:26.100Z,83.28
2018-04-10T01:03:26.092Z,83.09
2018-04-10T01:04:26.082Z,83.18
2018-04-10T01:05:26.074Z,82.90
2018-04-10T01:06:26.067Z,83.09
2018-04-10T01:07:26.065Z,83.76
2018-04-10T01:08:26.049Z,83.47
2018-04-10T01:09:26.043Z,84.05
2018-04-10T01:10:26.031Z,83.76
2018-04-10T01:11:26.029Z,83.86
2018-04-10T01:12:26.016Z,83.57
2018-04-10T01:13:26.007Z,84.23
2018-04-10T01:14:25.998Z,84.23
2018-04-10T01:15:25.991Z,84.23
2018-04-10T01:16:25.983Z,84.05
2018-04-10T01:17:25.976Z,84.14
2018-04-10T01:18:25.964Z,84.43
2018-04-10T01:19:25.958Z,84.39
2018-04-10T01:20:25.948Z,84.62
2018-04-10T01:21:25.937Z,84.39
2018-04-10T01:22:25.930Z,84.00
2018-04-10T01:23:25.930Z,84.39
2018-04-10T01:24:25.913Z,84.67
2018-04-10T01:25:25.903Z,84.39
2018-04-10T01:26:25.896Z,84.67
2018-04-10T01:27:25.892Z,84.86
2018-04-10T01:28:25.885Z,85.15
2018-04-10T01:29:25.875Z,84.96
2018-04-10T01:30:25.868Z,84.48
2018-04-10T01:31:25.858Z,84.77
2018-04-10T01:32:25.843Z,84.67
2018-04-10T01:33:25.837Z,84.86
2018-04-10T01:34:25.829Z,84.58
2018-04-10T01:35:25.823Z,84.96
2018-04-10T01:36:25.815Z,84.96
2018-04-10T01:37:25.799Z,85.05
2018-04-10T01:38:25.795Z,85.05
2018-04-10T01:39:25.787Z,85.05
2018-04-10T01:40:25.779Z,85.15
2018-04-10T01:41:25.763Z,85.53
2018-04-10T01:42:25.756Z,85.63
2018-04-10T01:43:25.745Z,85.63
2018-04-10T01:44:25.738Z,86.10
2018-04-10T01:45:25.728Z,86.01
2018-04-10T01:46:25.728Z,85.82
2018-04-10T01:47:25.711Z,86.30
2018-04-10T01:48:25.703Z,86.30
2018-04-10T01:49:25.694Z,86.10
2018-04-10T01:50:25.684Z,86.10
2018-04-10T01:51:25.937Z,86.39
2018-04-10T01:52:25.666Z,86.30
2018-04-10T01:53:25.663Z,86.30
2018-04-10T01:54:25.657Z,86.10
2018-04-10T01:55:25.641Z,86.01
2018-04-10T01:56:25.639Z,86.10
2018-04-10T01:57:25.622Z,86.30
2018-04-10T01:58:25.615Z,86.39
2018-04-10T01:59:25.615Z,85.97
2018-04-10T02:00:25.598Z,86.25
2018-04-10T02:01:25.590Z,86.44
2018-04-10T02:02:25.579Z,85.68
2018-04-10T02:03:25.576Z,85.82
2018-04-10T02:04:25.565Z,85.82
2018-04-10T02:05:25.552Z,85.63
2018-04-10T02:06:25.542Z,85.44
2018-04-10T02:07:25.534Z,85.63
2018-04-10T02:08:25.530Z,85.34
2018-04-10T02:09:25.536Z,85.72
2018-04-10T02:10:25.509Z,85.63
2018-04-10T02:11:25.505Z,85.72
2018-04-10T02:12:25.496Z,85.63
2018-04-10T02:13:25.488Z,85.72
2018-04-10T02:14:25.478Z,85.91
2018-04-10T02:15:25.462Z,86.20
2018-04-10T02:16:25.452Z,85.53
2018-04-10T02:17:25.456Z,85.82
2018-04-10T02:18:25.436Z,85.72
2018-04-10T02:19:25.433Z,85.91
2018-04-10T02:20:25.418Z,84.96
2018-04-10T02:21:25.408Z,85.15
2018-04-10T02:22:25.400Z,84.86
2018-04-10T02:23:25.393Z,84.77
2018-04-10T02:24:25.387Z,85.15
2018-04-10T02:25:25.378Z,85.25
2018-04-10T02:26:25.364Z,85.01
2018-04-10T02:27:25.357Z,85.25
2018-04-10T02:28:25.350Z,85.15
2018-04-10T02:29:25.341Z,84.77
2018-04-10T02:30:25.328Z,85.05
2018-04-10T02:31:25.317Z,85.82
2018-04-10T02:32:25.312Z,85.49
2018-04-10T02:33:25.300Z,85.58
2018-04-10T02:34:25.323Z,86.44
2018-04-10T02:35:25.281Z,86.06
2018-04-10T02:36:25.274Z,86.54
2018-04-10T02:37:25.271Z,86.92
2018-04-10T02:38:25.253Z,87.49
2018-04-10T02:39:25.249Z,87.97
2018-04-10T02:40:25.240Z,87.30
2018-04-10T02:41:25.227Z,87.21
2018-04-10T02:42:25.216Z,87.02
2018-04-10T02:43:25.207Z,86.92
2018-04-10T02:44:25.216Z,86.73
2018-04-10T02:45:25.188Z,86.92
2018-04-10T02:46:25.185Z,86.44
2018-04-10T02:47:25.171Z,86.16
2018-04-10T02:48:25.161Z,85.49
2018-04-10T02:49:25.150Z,85.77
2018-04-10T02:50:25.141Z,85.39
2018-04-10T02:51:25.133Z,85.77
2018-04-10T02:52:25.130Z,85.11
2018-04-10T02:53:25.115Z,85.58
2018-04-10T02:54:25.106Z,85.49
2018-04-10T02:55:25.095Z,85.11
2018-04-10T02:56:25.089Z,84.96
2018-04-10T02:57:25.078Z,84.63
2018-04-10T02:58:25.069Z,84.44
2018-04-10T02:59:25.057Z,84.48
2018-04-10T03:00:25.049Z,84.92
2018-04-10T03:01:25.037Z,85.01
2018-04-10T03:02:25.029Z,85.01
2018-04-10T03:03:25.022Z,85.30
2018-04-10T03:04:25.010Z,85.49
2018-04-10T03:05:25.005Z,85.77
2018-04-10T03:06:24.991Z,86.06
2018-04-10T03:07:24.981Z,86.69
2018-04-10T03:08:24.974Z,87.07
2018-04-10T03:09:24.966Z,87.35
2018-04-10T03:10:24.954Z,87.45
2018-04-10T03:11:24.948Z,87.35
2018-04-10T03:12:24.933Z,87.74
2018-04-10T03:13:24.925Z,88.02
2018-04-10T03:14:24.914Z,87.83
2018-04-10T03:15:24.908Z,88.21
2018-04-10T03:16:24.902Z,87.74
2018-04-10T03:17:24.887Z,88.21
2018-04-10T03:18:24.879Z,88.12
2018-04-10T03:19:24.866Z,88.78
2018-04-10T03:20:24.859Z,88.31
2018-04-10T03:21:24.845Z,88.50
2018-04-10T03:22:24.837Z,88.59
2018-04-10T03:23:24.830Z,89.26
2018-04-10T03:24:24.826Z,88.88
2018-04-10T03:25:24.808Z,89.07
2018-04-10T03:26:24.804Z,89.26
2018-04-10T03:27:24.790Z,89.45
2018-04-10T03:28:24.779Z,89.45
2018-04-10T03:29:24.768Z,89.93
2018-04-10T03:30:24.759Z,89.98
2018-04-10T03:31:24.748Z,89.83
2018-04-10T03:32:24.745Z,90.12
2018-04-10T03:33:24.729Z,90.03
2018-04-10T03:34:24.728Z,89.93
2018-04-10T03:35:24.715Z,89.54
2018-04-10T03:36:24.706Z,89.07
2018-04-10T03:37:24.695Z,89.26
2018-04-10T03:38:24.681Z,89.17
2018-04-10T03:39:24.671Z,89.64
2018-04-10T03:40:24.661Z,89.83
2018-04-10T03:41:24.653Z,90.31
2018-04-10T03:42:24.646Z,90.22
2018-04-10T03:43:24.631Z,90.22
2018-04-10T03:44:24.621Z,90.22
2018-04-10T03:45:24.615Z,90.22
2018-04-10T03:46:24.599Z,90.03
2018-04-10T03:47:24.599Z,89.50
2018-04-10T03:48:24.587Z,89.98
2018-04-10T03:49:24.572Z,90.45
2018-04-10T03:50:24.560Z,90.36
2018-04-10T03:51:24.549Z,90.55
2018-04-10T03:52:24.539Z,90.84
2018-04-10T03:53:24.531Z,90.74
2018-04-10T03:54:24.518Z,90.64
2018-04-10T03:55:24.508Z,90.74
2018-04-10T03:56:24.499Z,90.69
2018-04-10T03:57:24.488Z,90.55
2018-04-10T03:58:24.476Z,90.64
2018-04-10T03:59:24.466Z,90.64
2018-04-10T04:00:24.464Z,90.64
2018-04-10T04:01:24.451Z,90.93
2018-04-10T04:02:24.441Z,91.22
2018-04-10T04:03:24.432Z,91.31
2018-04-10T04:04:24.416Z,90.93
2018-04-10T04:05:24.410Z,91.79
2018-04-10T04:06:24.397Z,91.60
2018-04-10T04:07:24.383Z,91.88
2018-04-10T04:08:24.373Z,91.69
2018-04-10T04:09:24.363Z,91.50
2018-04-10T04:10:24.362Z,91.88
2018-04-10T04:11:24.344Z,91.88
2018-04-10T04:12:24.337Z,91.98
2018-04-10T04:13:24.319Z,91.69
2018-04-10T04:14:24.317Z,91.60
2018-04-10T04:15:24.300Z,91.60
2018-04-10T04:16:24.291Z,91.98
2018-04-10T04:17:24.284Z,91.88
2018-04-10T04:18:24.276Z,91.31
2018-04-10T04:19:24.259Z,91.98
2018-04-10T04:20:24.249Z,91.69
2018-04-10T04:21:24.244Z,91.88
2018-04-10T04:22:24.230Z,92.55
2018-04-10T04:23:24.226Z,92.27
2018-04-10T04:24:24.207Z,92.46
2018-04-10T04:25:24.198Z,92.65
2018-04-10T04:26:24.187Z,92.84
2018-04-10T04:27:24.182Z,92.36
2018-04-10T04:28:24.174Z,92.65
2018-04-10T04:29:24.155Z,92.36
2018-04-10T04:30:24.148Z,92.27
2018-04-10T04:31:24.137Z,92.55
2018-04-10T04:32:24.133Z,92.36
2018-04-10T04:33:24.116Z,92.08
2018-04-10T04:34:24.106Z,92.36
2018-04-10T04:35:24.098Z,91.79
2018-04-10T04:36:24.093Z,92.08
2018-04-10T04:37:24.073Z,91.79
2018-04-10T04:38:24.065Z,91.41
2018-04-10T04:39:24.056Z,91.98
2018-04-10T04:40:24.045Z,92.55
2018-04-10T04:41:24.037Z,92.08
2018-04-10T04:42:24.031Z,92.65
2018-04-10T04:43:24.012Z,91.79
2018-04-10T04:44:24.009Z,91.60
2018-04-10T04:45:23.991Z,91.41
2018-04-10T04:46:23.985Z,91.88
2018-04-10T04:47:23.979Z,91.79
2018-04-10T04:48:23.961Z,91.98
2018-04-10T04:49:23.955Z,91.31
2018-04-10T04:50:23.938Z,91.69
2018-04-10T04:51:23.928Z,91.69
2018-04-10T04:52:23.924Z,91.98
2018-04-10T04:53:23.905Z,91.98
2018-04-10T04:54:23.899Z,92.27
2018-04-10T04:55:23.886Z,92.46
2018-04-10T04:56:23.875Z,92.46
2018-04-10T04:57:23.865Z,92.46
2018-04-10T04:58:23.854Z,91.60
2018-04-10T04:59:23.850Z,91.69
2018-04-10T05:00:23.833Z,91.98
2018-04-10T05:01:23.825Z,91.98
2018-04-10T05:02:23.811Z,91.88
2018-04-10T05:03:23.798Z,91.69
2018-04-10T05:04:23.792Z,92.46
2018-04-10T05:05:23.784Z,92.46
2018-04-10T05:06:23.774Z,92.36
2018-04-10T05:07:23.757Z,92.36
2018-04-10T05:08:23.785Z,91.98
2018-04-10T05:09:23.737Z,92.55
2018-04-10T05:10:23.729Z,92.27
2018-04-10T05:11:23.724Z,92.55
2018-04-10T05:12:23.711Z,92.46
2018-04-10T05:13:23.695Z,92.17
2018-04-10T05:14:23.682Z,93.03
2018-04-10T05:15:23.707Z,92.50
2018-04-10T05:16:23.663Z,93.37
2018-04-10T05:17:23.655Z,92.98
2018-04-10T05:18:23.642Z,93.27
2018-04-10T05:19:23.632Z,93.17
2018-04-10T05:20:23.624Z,93.27
2018-04-10T05:21:23.609Z,93.27
2018-04-10T05:22:23.605Z,92.98
2018-04-10T05:23:23.589Z,92.98
2018-04-10T05:24:23.580Z,92.69
2018-04-10T05:25:23.571Z,92.41
2018-04-10T05:26:23.564Z,92.98
2018-04-10T05:27:23.553Z,93.37
2018-04-10T05:28:23.544Z,93.17
2018-04-10T05:29:23.527Z,93.27
2018-04-10T05:30:23.517Z,92.69
2018-04-10T05:31:23.503Z,92.41
2018-04-10T05:32:23.496Z,92.22
2018-04-10T05:33:23.483Z,93.37
2018-04-10T05:34:23.473Z,92.65
2018-04-10T05:35:23.461Z,92.17
2018-04-10T05:36:23.453Z,91.79
2018-04-10T05:37:23.449Z,91.98
2018-04-10T05:38:23.432Z,91.60
2018-04-10T05:39:23.420Z,91.98
2018-04-10T05:40:23.412Z,91.50
2018-04-10T05:41:23.400Z,91.79
2018-04-10T05:42:23.392Z,91.69
2018-04-10T05:43:23.385Z,91.07
2018-04-10T05:44:23.369Z,90.69
2018-04-10T05:45:23.365Z,90.03
2018-04-10T05:46:23.349Z,89.83
2018-04-10T05:47:23.340Z,89.17
2018-04-10T05:48:23.328Z,88.50
2018-04-10T05:49:23.317Z,88.88
2018-04-10T05:50:23.317Z,89.26
2018-04-10T05:51:23.304Z,88.98
2018-04-10T05:52:23.288Z,89.64
2018-04-10T05:53:23.278Z,89.54
2018-04-10T05:54:23.267Z,89.83
2018-04-10T05:55:23.257Z,89.64
2018-04-10T05:56:23.247Z,89.74
2018-04-10T05:57:23.237Z,89.07
2018-04-10T05:58:23.228Z,89.17
2018-04-10T05:59:23.247Z,88.31
2018-04-10T06:00:23.206Z,88.54
2018-04-10T06:01:23.199Z,87.97
2018-04-10T06:02:23.182Z,88.07
2018-04-10T06:03:23.172Z,87.68
2018-04-10T06:04:23.172Z,87.78
2018-04-10T06:05:23.153Z,87.40
2018-04-10T06:06:23.147Z,87.68
2018-04-10T06:07:23.136Z,87.21
2018-04-10T06:08:23.132Z,87.40
2018-04-10T06:09:23.115Z,86.68
2018-04-10T06:10:23.107Z,85.63
2018-04-10T06:11:23.102Z,84.67
2018-04-10T06:12:23.087Z,84.48
2018-04-10T06:13:23.079Z,84.29
2018-04-10T06:14:23.067Z,84.29
2018-04-10T06:15:23.060Z,83.57
2018-04-10T06:16:23.049Z,83.67
2018-04-10T06:17:23.039Z,83.47
2018-04-10T06:18:23.037Z,83.28
2018-04-10T06:19:23.024Z,82.90
2018-04-10T06:20:23.015Z,82.52
2018-04-10T06:21:23.053Z,82.61
2018-04-10T06:22:22.995Z,82.42
2018-04-10T06:23:22.985Z,81.47
2018-04-10T06:24:22.976Z,81.32
2018-04-10T06:25:22.972Z,81.41
2018-04-10T06:26:22.966Z,80.84
2018-04-10T06:27:22.951Z,80.84
2018-04-10T06:28:22.946Z,80.36
2018-04-10T06:29:22.936Z,79.98
2018-04-10T06:30:22.925Z,79.98
2018-04-10T06:31:22.917Z,80.27
2018-04-10T06:32:22.909Z,81.03
2018-04-10T06:33:22.907Z,81.79
2018-04-10T06:34:22.891Z,82.28
2018-04-10T06:35:22.882Z,81.66
2018-04-10T06:36:22.883Z,81.03
2018-04-10T06:37:22.886Z,81.32
2018-04-10T06:38:22.867Z,80.17
2018-04-10T06:39:22.847Z,79.93
2018-04-10T06:40:22.840Z,79.35
2018-04-10T06:41:22.833Z,78.87
2018-04-10T06:42:22.826Z,78.58
2018-04-10T06:43:22.818Z,78.58
2018-04-10T06:44:22.813Z,78.11
2018-04-10T06:45:22.804Z,78.01
2018-04-10T06:46:22.791Z,77.63
2018-04-10T06:47:22.788Z,78.39
2018-04-10T06:48:22.775Z,78.58
2018-04-10T06:49:22.768Z,78.30
2018-04-10T06:50:22.765Z,78.20
2018-04-10T06:51:22.754Z,78.11
2018-04-10T06:52:22.747Z,78.30
2018-04-10T06:53:22.733Z,77.63
2018-04-10T06:54:22.727Z,78.11
2018-04-10T06:55:22.720Z,77.82
2018-04-10T06:56:22.716Z,78.11
2018-04-10T06:57:22.709Z,78.11
2018-04-10T06:58:22.697Z,77.53
2018-04-10T06:59:22.699Z,77.57
2018-04-10T07:00:22.676Z,77.09
2018-04-10T07:01:22.669Z,77.06
2018-04-10T07:02:22.660Z,76.57
2018-04-10T07:03:22.659Z,76.62
2018-04-10T07:04:22.647Z,76.62
2018-04-10T07:05:22.638Z,76.23
2018-04-10T07:06:22.628Z,75.37
2018-04-10T07:07:22.625Z,75.51
2018-04-10T07:08:22.615Z,74.65
2018-04-10T07:09:22.604Z,74.36
2018-04-10T07:10:22.600Z,73.79
2018-04-10T07:11:22.598Z,73.88
2018-04-10T07:12:22.582Z,73.40
2018-04-10T07:13:22.634Z,73.11
2018-04-10T07:14:22.564Z,73.11
2018-04-10T07:15:22.561Z,73.40
2018-04-10T07:16:22.550Z,73.34
2018-04-10T07:17:22.552Z,73.15
2018-04-10T07:18:22.536Z,72.96
2018-04-10T07:19:22.533Z,72.48
2018-04-10T07:20:22.519Z,72.42
2018-04-10T07:21:22.512Z,72.23
2018-04-10T07:22:22.511Z,72.03
2018-04-10T07:23:22.504Z,71.46
2018-04-10T07:24:22.498Z,71.66
2018-04-10T07:25:22.482Z,71.17
2018-04-10T07:26:22.482Z,71.40
2018-04-10T07:27:22.469Z,70.44
2018-04-10T07:28:22.463Z,70.25
2018-04-10T07:29:22.459Z,69.77
2018-04-10T07:30:22.449Z,69.20
2018-04-10T07:31:22.450Z,69.01
2018-04-10T07:32:22.435Z,68.52
2018-04-10T07:33:22.426Z,67.85
2018-04-10T07:34:22.421Z,67.38
2018-04-10T07:35:22.414Z,66.71
2018-04-10T07:36:22.408Z,66.71
2018-04-10T07:37:22.407Z,66.89
2018-04-10T07:38:22.396Z,66.71
2018-04-10T07:39:22.388Z,67.76
2018-04-10T07:40:22.386Z,66.99
2018-04-10T07:41:22.375Z,66.22
2018-04-10T07:42:22.374Z,66.99
2018-04-10T07:43:22.371Z,67.85
2018-04-10T07:44:22.355Z,67.85
2018-04-10T07:45:22.349Z,67.09
2018-04-10T07:46:22.342Z,66.71
2018-04-10T07:47:22.342Z,67.15
2018-04-10T07:48:22.330Z,66.51
2018-04-10T07:49:22.320Z,66.13
2018-04-10T07:50:22.318Z,66.32
2018-04-10T07:51:22.326Z,66.42
2018-04-10T07:52:22.312Z,66.13
2018-04-10T07:53:22.295Z,65.65
2018-04-10T07:54:22.294Z,65.84
2018-04-10T07:55:22.283Z,66.29
2018-04-10T07:56:22.276Z,65.33
2018-04-10T07:57:22.273Z,65.52
2018-04-10T07:58:22.262Z,66.00
2018-04-10T07:59:22.258Z,65.62
2018-04-10T08:00:22.248Z,65.62
2018-04-10T08:01:22.243Z,66.09
2018-04-10T08:02:22.247Z,65.23
2018-04-10T08:03:22.277Z,64.95
2018-04-10T08:04:22.231Z,64.79
2018-04-10T08:05:22.217Z,65.26
2018-04-10T08:06:22.210Z,65.08
2018-04-10T08:07:22.209Z,64.89
2018-04-10T08:08:22.203Z,64.89
2018-04-10T08:09:22.189Z,64.02
2018-04-10T08:10:22.186Z,64.12
2018-04-10T08:11:22.182Z,63.51
2018-04-10T08:12:22.178Z,63.42
2018-04-10T08:13:22.164Z,63.89
2018-04-10T08:14:22.165Z,63.42
2018-04-10T08:15:22.156Z,63.70
2018-04-10T08:16:22.153Z,63.51
2018-04-10T08:17:22.144Z,63.89
2018-04-10T08:18:22.135Z,63.42
2018-04-10T08:19:22.128Z,63.54
2018-04-10T08:20:22.125Z,63.45
2018-04-10T08:21:22.113Z,63.64
2018-04-10T08:22:22.107Z,62.84
2018-04-10T08:23:22.097Z,62.39
2018-04-10T08:24:22.091Z,63.16
2018-04-10T08:25:22.085Z,63.03
2018-04-10T08:26:22.078Z,63.06
2018-04-10T08:27:22.073Z,62.01
2018-04-10T08:28:22.078Z,62.77
2018-04-10T08:29:22.056Z,63.35
2018-04-10T08:30:22.057Z,63.45
2018-04-10T08:31:22.042Z,63.64
2018-04-10T08:32:22.036Z,63.45
2018-04-10T08:33:22.031Z,63.64
2018-04-10T08:34:22.023Z,63.35
2018-04-10T08:35:22.015Z,63.35
2018-04-10T08:36:22.013Z,62.87
2018-04-10T08:37:22.001Z,63.26
2018-04-10T08:38:21.996Z,63.16
2018-04-10T08:39:21.989Z,62.77
2018-04-10T08:40:21.990Z,63.09
2018-04-10T08:41:21.974Z,63.00
2018-04-10T08:42:21.973Z,62.42
2018-04-10T08:43:21.968Z,62.42
2018-04-10T08:44:21.962Z,62.52
2018-04-10T08:45:21.949Z,62.13
2018-04-10T08:46:21.953Z,62.04
2018-04-10T08:47:21.933Z,61.94
2018-04-10T08:48:21.934Z,62.81
2018-04-10T08:49:21.920Z,61.94
2018-04-10T08:50:21.915Z,62.04
2018-04-10T08:51:21.911Z,61.85
2018-04-10T08:52:21.905Z,62.71
2018-04-10T08:53:21.897Z,61.94
2018-04-10T08:54:21.895Z,62.16
2018-04-10T08:55:21.885Z,61.88
2018-04-10T08:56:21.877Z,61.30
2018-04-10T08:57:21.869Z,61.11
2018-04-10T08:58:21.868Z,61.21
2018-04-10T08:59:21.858Z,61.30
2018-04-10T09:00:21.852Z,61.11
2018-04-10T09:01:21.846Z,61.11
2018-04-10T09:02:21.843Z,60.63
2018-04-10T09:03:21.835Z,61.11
2018-04-10T09:04:21.833Z,60.44
2018-04-10T09:05:21.826Z,60.47
2018-04-10T09:06:21.813Z,60.08
2018-04-10T09:07:21.809Z,60.25
2018-04-10T09:08:21.806Z,60.35
2018-04-10T09:09:21.845Z,59.77
2018-04-10T09:10:21.795Z,60.18
2018-04-10T09:11:21.783Z,60.47
2018-04-10T09:12:21.783Z,60.18
2018-04-10T09:13:21.779Z,59.99
2018-04-10T09:14:21.774Z,59.41
2018-04-10T09:15:21.757Z,59.41
2018-04-10T09:16:21.754Z,59.41
2018-04-10T09:17:21.746Z,59.54
2018-04-10T09:18:21.737Z,59.44
2018-04-10T09:19:21.732Z,59.25
2018-04-10T09:20:21.726Z,59.34
2018-04-10T09:21:21.721Z,59.06
2018-04-10T09:22:21.721Z,58.51
2018-04-10T09:23:21.712Z,58.42
2018-04-10T09:24:21.710Z,58.03
2018-04-10T09:25:21.701Z,58.22
2018-04-10T09:26:21.697Z,58.03
2018-04-10T09:27:21.693Z,58.03
2018-04-10T09:28:21.684Z,58.61
2018-04-10T09:29:21.678Z,57.65
2018-04-10T09:30:21.675Z,57.84
2018-04-10T09:31:21.670Z,58.32
2018-04-10T09:32:21.662Z,58.42
2018-04-10T09:33:21.657Z,57.65
2018-04-10T09:34:21.650Z,57.07
2018-04-10T09:35:21.645Z,57.17
2018-04-10T09:36:21.639Z,57.65
2018-04-10T09:37:21.633Z,58.67
2018-04-10T09:38:21.633Z,59.73
2018-04-10T09:39:21.630Z,59.83
2018-04-10T09:40:21.625Z,59.41
2018-04-10T09:41:21.614Z,59.89
2018-04-10T09:42:21.619Z,60.08
2018-04-10T09:43:21.607Z,59.77
2018-04-10T09:44:21.597Z,60.35
2018-04-10T09:45:21.594Z,61.21
2018-04-10T09:46:21.587Z,61.78
2018-04-10T09:47:21.588Z,61.30
2018-04-10T09:48:21.577Z,61.33
2018-04-10T09:49:21.571Z,60.38
2018-04-10T09:50:21.564Z,60.38
2018-04-10T09:51:21.567Z,60.57
2018-04-10T09:52:21.554Z,60.35
2018-04-10T09:53:21.554Z,60.75
2018-04-10T09:54:21.542Z,60.28
2018-04-10T09:55:21.545Z,59.06
2018-04-10T09:56:21.536Z,58.96
2018-04-10T09:57:21.525Z,59.25
2018-04-10T09:58:21.527Z,57.52
2018-04-10T09:59:21.513Z,57.71
2018-04-10T10:00:21.507Z,58.74
2018-04-10T10:01:21.501Z,59.32
2018-04-10T10:02:21.511Z,59.89
2018-04-10T10:03:21.496Z,60.08
2018-04-10T10:04:21.495Z,60.47
2018-04-10T10:05:21.481Z,60.08
2018-04-10T10:06:21.472Z,59.32
2018-04-10T10:07:21.466Z,59.67
2018-04-10T10:08:21.467Z,59.67
2018-04-10T10:09:21.455Z,59.12
2018-04-10T10:10:21.450Z,59.12
2018-04-10T10:11:21.448Z,59.70
2018-04-10T10:12:21.440Z,58.77
2018-04-10T10:13:21.431Z,57.90
2018-04-10T10:14:21.424Z,57.59
2018-04-10T10:15:21.418Z,59.32
2018-04-10T10:16:21.413Z,58.64
2018-04-10T10:17:21.408Z,59.06
2018-04-10T10:18:21.401Z,58.20
2018-04-10T10:19:21.394Z,57.90
2018-04-10T10:20:21.388Z,56.78
2018-04-10T10:21:21.383Z,55.53
2018-04-10T10:22:21.377Z,55.44
2018-04-10T10:23:21.372Z,55.60
2018-04-10T10:24:21.365Z,56.95
2018-04-10T10:25:21.359Z,57.33
2018-04-10T10:26:21.354Z,57.23
2018-04-10T10:27:21.350Z,57.33
2018-04-10T10:28:21.341Z,56.30
2018-04-10T10:29:21.341Z,56.78
2018-04-10T10:30:21.336Z,55.44
2018-04-10T10:31:21.325Z,54.67
2018-04-10T10:32:21.319Z,53.20
2018-04-10T10:33:21.324Z,53.01
2018-04-10T10:34:21.312Z,54.74
2018-04-10T10:35:21.305Z,54.64
2018-04-10T10:36:21.299Z,54.96
2018-04-10T10:37:21.294Z,54.28
2018-04-10T10:38:21.289Z,52.84
2018-04-10T10:39:21.284Z,52.65
2018-04-10T10:40:21.273Z,52.77
2018-04-10T10:41:21.266Z,52.10
2018-04-10T10:42:21.266Z,52.77
2018-04-10T10:43:21.258Z,52.87
2018-04-10T10:44:21.250Z,51.33
2018-04-10T10:45:21.244Z,50.95
2018-04-10T10:46:21.240Z,50.40
2018-04-10T10:47:21.238Z,51.26
2018-04-10T10:48:21.227Z,50.87
2018-04-10T10:49:21.224Z,50.99
2018-04-10T10:50:21.218Z,51.09
2018-04-10T10:51:21.214Z,50.71
2018-04-10T10:52:21.215Z,50.81
2018-04-10T10:53:21.209Z,51.48
2018-04-10T10:54:21.198Z,52.99
2018-04-10T10:55:21.194Z,53.19
2018-04-10T10:56:21.192Z,54.22
2018-04-10T10:57:21.194Z,54.22
2018-04-10T10:58:21.180Z,54.38
2018-04-10T10:59:21.183Z,55.63
2018-04-10T11:00:21.168Z,56.66
2018-04-10T11:01:21.164Z,56.18
2018-04-10T11:02:21.158Z,56.95
2018-04-10T11:03:21.156Z,57.40
2018-04-10T11:04:21.150Z,58.74
2018-04-10T11:05:21.151Z,58.23
2018-04-10T11:06:21.139Z,59.00
2018-04-10T11:07:21.133Z,58.26
2018-04-10T11:08:21.128Z,57.28
2018-04-10T11:09:21.122Z,58.23
2018-04-10T11:10:21.115Z,58.81
2018-04-10T11:11:21.112Z,58.62
2018-04-10T11:12:21.104Z,59.00
2018-04-10T11:13:21.105Z,57.97
2018-04-10T11:14:21.102Z,56.89
2018-04-10T11:15:21.088Z,56.53
2018-04-10T11:16:21.086Z,56.73
2018-04-10T11:17:21.081Z,57.08
2018-04-10T11:18:21.069Z,56.89
2018-04-10T11:19:21.068Z,57.28
2018-04-10T11:20:21.058Z,57.75
2018-04-10T11:21:21.057Z,57.18
2018-04-10T11:22:21.046Z,57.56
2018-04-10T11:23:21.044Z,58.11
2018-04-10T11:24:21.036Z,58.75
2018-04-10T11:25:21.036Z,59.71
2018-04-10T11:26:21.023Z,59.52
2018-04-10T11:27:21.019Z,59.06
2018-04-10T11:28:21.011Z,58.17
2018-04-10T11:29:21.005Z,60.00
2018-04-10T11:30:21.008Z,60.19
2018-04-10T11:31:21.003Z,59.23
2018-04-10T11:32:20.990Z,59.52
2018-04-10T11:33:20.982Z,59.16
2018-04-10T11:34:20.975Z,58.08
2018-04-10T11:35:20.970Z,58.49
2018-04-10T11:36:20.972Z,58.11
2018-04-10T11:37:20.961Z,56.57
2018-04-10T11:38:20.954Z,58.17
2018-04-10T11:39:20.950Z,57.89
2018-04-10T11:40:20.937Z,58.08
2018-04-10T11:41:20.930Z,59.36
2018-04-10T11:42:20.927Z,57.03
2018-04-10T11:43:20.920Z,58.17
2018-04-10T11:44:20.918Z,58.84
2018-04-10T11:45:20.904Z,57.98
2018-04-10T11:46:20.904Z,58.65
2018-04-10T11:47:20.896Z,58.37
2018-04-10T11:48:20.892Z,58.27
2018-04-10T11:49:20.877Z,57.70
2018-04-10T11:50:20.877Z,57.50
2018-04-10T11:51:20.870Z,57.50
2018-04-10T11:52:20.857Z,58.24
2018-04-10T11:53:20.851Z,58.91
2018-04-10T11:54:20.845Z,58.24
2018-04-10T11:55:20.837Z,59.01
2018-04-10T11:56:20.837Z,58.53
2018-04-10T11:57:20.827Z,59.77
2018-04-10T11:58:20.814Z,60.16
2018-04-10T11:59:20.817Z,59.30
2018-04-10T12:00:20.803Z,59.01
2018-04-10T12:01:20.792Z,58.44
2018-04-10T12:02:20.787Z,59.30
2018-04-10T12:03:20.779Z,59.48
2018-04-10T12:04:20.772Z,58.15
2018-04-10T12:05:20.767Z,59.04
2018-04-10T12:06:20.759Z,57.57
2018-04-10T12:07:20.757Z,57.95
2018-04-10T12:08:20.744Z,59.30
2018-04-10T12:09:20.742Z,58.05
2018-04-10T12:10:20.730Z,59.01
2018-04-10T12:11:20.731Z,59.68
2018-04-10T12:12:20.716Z,59.39
2018-04-10T12:13:20.707Z,58.31
2018-04-10T12:14:20.706Z,59.87
2018-04-10T12:15:20.694Z,59.11
2018-04-10T12:16:20.693Z,57.95
2018-04-10T12:17:20.679Z,58.91
2018-04-10T12:18:20.673Z,58.81
2018-04-10T12:19:20.665Z,58.40
2018-04-10T12:20:20.659Z,59.36
2018-04-10T12:21:20.653Z,59.08
2018-04-10T12:22:20.643Z,59.55
2018-04-10T12:23:20.636Z,57.28
2018-04-10T12:24:20.663Z,57.95
2018-04-10T12:25:20.619Z,57.38
2018-04-10T12:26:20.622Z,58.05
2018-04-10T12:27:20.607Z,57.67
2018-04-10T12:28:20.599Z,56.52
2018-04-10T12:29:20.593Z,57.19
2018-04-10T12:30:20.584Z,58.05
2018-04-10T12:31:20.585Z,56.81
2018-04-10T12:32:20.573Z,56.90
2018-04-10T12:33:20.569Z,56.71
2018-04-10T12:34:20.556Z,58.34
2018-04-10T12:35:20.551Z,57.06
2018-04-10T12:36:20.550Z,57.57
2018-04-10T12:37:20.535Z,56.97
2018-04-10T12:38:20.529Z,57.92
2018-04-10T12:39:20.521Z,58.50
2018-04-10T12:40:20.522Z,58.02
2018-04-10T12:41:20.511Z,58.22
2018-04-10T12:42:20.505Z,58.88
2018-04-10T12:43:20.500Z,57.19
2018-04-10T12:44:20.486Z,58.05
2018-04-10T12:45:20.476Z,56.42
2018-04-10T12:46:20.478Z,56.39
2018-04-10T12:47:20.462Z,56.81
2018-04-10T12:48:20.457Z,57.16
2018-04-10T12:49:20.448Z,57.54
2018-04-10T12:50:20.442Z,57.16
2018-04-10T12:51:20.435Z,57.13
2018-04-10T12:52:20.436Z,58.18